sensor_id;sensor_type;location;lat;lon;timestamp;pressure;altitude;pressure_sealevel;temperature;humidity
25650;BME280;13505;45.196;5.696;2023-10-08T04:32:25;100159.63;;;14.56;90.19
25650;BME280;13505;45.196;5.696;2023-10-08T04:37:16;100158.78;;;14.74;89.10
25650;BME280;13505;45.196;5.696;2023-10-08T04:42:10;100168.25;;;14.80;88.98
25650;BME280;13505;45.196;5.696;2023-10-08T04:47:02;100176.22;;;14.80;88.86
25650;BME280;13505;45.196;5.696;2023-10-08T04:52:01;100180.38;;;14.86;88.32
25650;BME280;13505;45.196;5.696;2023-10-08T04:57:01;100184.03;;;14.45;91.58
25650;BME280;13505;45.196;5.696;2023-10-08T05:01:51;100187.22;;;14.32;92.72
25650;BME280;13505;45.196;5.696;2023-10-08T05:07:00;100180.44;;;14.65;89.68
25650;BME280;13505;45.196;5.696;2023-10-08T05:12:09;100190.38;;;14.41;91.21
25650;BME280;13505;45.196;5.696;2023-10-08T05:17:35;100191.06;;;14.46;90.97
25650;BME280;13505;45.196;5.696;2023-10-08T05:22:36;100199.81;;;14.48;91.07
25650;BME280;13505;45.196;5.696;2023-10-08T05:27:26;100201.25;;;14.55;89.61
25650;BME280;13505;45.196;5.696;2023-10-08T05:32:28;100210.06;;;14.36;91.50
25650;BME280;13505;45.196;5.696;2023-10-08T05:37:28;100209.28;;;14.54;89.53
25650;BME280;13505;45.196;5.696;2023-10-08T05:42:22;100209.69;;;14.63;88.17
25650;BME280;13505;45.196;5.696;2023-10-08T05:47:18;100217.03;;;14.58;86.34
25650;BME280;13505;45.196;5.696;2023-10-08T05:52:17;100226.34;;;14.48;87.88
25650;BME280;13505;45.196;5.696;2023-10-08T05:57:31;100230.38;;;14.17;88.86
25650;BME280;13505;45.196;5.696;2023-10-08T06:02:33;100242.03;;;14.33;89.36
25650;BME280;13505;45.196;5.696;2023-10-08T06:07:24;100240.94;;;14.18;91.83
25650;BME280;13505;45.196;5.696;2023-10-08T06:12:23;100239.47;;;14.51;88.64
25650;BME280;13505;45.196;5.696;2023-10-08T06:17:20;100245.81;;;14.28;84.96
25650;BME280;13505;45.196;5.696;2023-10-08T06:22:29;100266.00;;;14.11;82.04
25650;BME280;13505;45.196;5.696;2023-10-08T06:27:19;100251.25;;;14.24;81.35
25650;BME280;13505;45.196;5.696;2023-10-08T06:32:11;100262.41;;;14.33;79.58
25650;BME280;13505;45.196;5.696;2023-10-08T06:37:03;100258.19;;;14.29;79.04
25650;BME280;13505;45.196;5.696;2023-10-08T06:41:54;100261.00;;;14.45;78.25
25650;BME280;13505;45.196;5.696;2023-10-08T06:47:15;100265.97;;;14.52;77.47
25650;BME280;13505;45.196;5.696;2023-10-08T06:52:38;100282.25;;;14.64;77.52
25650;BME280;13505;45.196;5.696;2023-10-08T06:57:35;100278.00;;;14.60;77.49
25650;BME280;13505;45.196;5.696;2023-10-08T07:02:41;100282.31;;;14.83;76.72
25650;BME280;13505;45.196;5.696;2023-10-08T07:07:46;100284.34;;;14.97;74.89
25650;BME280;13505;45.196;5.696;2023-10-08T07:12:52;100277.00;;;15.02;72.15
25650;BME280;13505;45.196;5.696;2023-10-08T07:17:49;100288.69;;;15.17;70.76
25650;BME280;13505;45.196;5.696;2023-10-08T07:29:30;100287.19;;;16.04;68.04
25650;BME280;13505;45.196;5.696;2023-10-08T07:40:57;100279.63;;;16.13;74.63
25650;BME280;13505;45.196;5.696;2023-10-08T07:45:47;100277.44;;;16.21;76.04
25650;BME280;13505;45.196;5.696;2023-10-08T07:50:42;100282.69;;;16.56;74.31
25650;BME280;13505;45.196;5.696;2023-10-08T07:55:35;100283.38;;;16.94;72.23
25650;BME280;13505;45.196;5.696;2023-10-08T08:00:25;100276.84;;;16.83;69.10
25650;BME280;13505;45.196;5.696;2023-10-08T08:05:20;100282.75;;;16.88;65.11
25650;BME280;13505;45.196;5.696;2023-10-08T08:10:11;100284.09;;;17.62;60.58
25650;BME280;13505;45.196;5.696;2023-10-08T08:15:02;100281.91;;;17.68;59.92
25650;BME280;13505;45.196;5.696;2023-10-08T08:20:05;100273.06;;;17.98;58.94
25650;BME280;13505;45.196;5.696;2023-10-08T08:25:08;100278.28;;;18.45;58.34
25650;BME280;13505;45.196;5.696;2023-10-08T08:30:16;100272.94;;;19.18;58.29
25650;BME280;13505;45.196;5.696;2023-10-08T08:35:10;100267.84;;;19.55;58.93
25650;BME280;13505;45.196;5.696;2023-10-08T08:40:04;100271.47;;;19.82;58.02
25650;BME280;13505;45.196;5.696;2023-10-08T08:45:19;100272.53;;;19.24;58.85
25650;BME280;13505;45.196;5.696;2023-10-08T08:50:10;100259.00;;;19.67;57.70
25650;BME280;13505;45.196;5.696;2023-10-08T08:55:00;100268.47;;;19.46;58.32
25650;BME280;13505;45.196;5.696;2023-10-08T08:59:58;100259.31;;;20.03;55.76
25650;BME280;13505;45.196;5.696;2023-10-08T09:04:52;100253.13;;;20.29;50.98
25650;BME280;13505;45.196;5.696;2023-10-08T09:09:44;100255.34;;;20.61;51.15
25650;BME280;13505;45.196;5.696;2023-10-08T09:14:35;100250.91;;;20.73;52.74
25650;BME280;13505;45.196;5.696;2023-10-08T09:19:27;100239.38;;;20.59;54.11
25650;BME280;13505;45.196;5.696;2023-10-08T09:24:18;100239.41;;;20.97;53.66
25650;BME280;13505;45.196;5.696;2023-10-08T09:29:11;100234.31;;;21.42;51.43
25650;BME280;13505;45.196;5.696;2023-10-08T09:34:03;100237.09;;;21.16;51.53
25650;BME280;13505;45.196;5.696;2023-10-08T09:38:53;100236.31;;;21.52;51.12
25650;BME280;13505;45.196;5.696;2023-10-08T09:43:45;100226.06;;;21.81;52.64
25650;BME280;13505;45.196;5.696;2023-10-08T09:48:37;100229.69;;;21.69;50.06
25650;BME280;13505;45.196;5.696;2023-10-08T09:53:40;100220.03;;;22.13;50.57
25650;BME280;13505;45.196;5.696;2023-10-08T09:58:33;100206.34;;;22.28;51.40
25650;BME280;13505;45.196;5.696;2023-10-08T10:03:26;100201.72;;;22.87;48.49
25650;BME280;13505;45.196;5.696;2023-10-08T10:08:17;100200.16;;;23.28;49.97
25650;BME280;13505;45.196;5.696;2023-10-08T10:13:10;100197.84;;;22.57;50.38
25650;BME280;13505;45.196;5.696;2023-10-08T10:28:26;100187.97;;;24.09;47.72
25650;BME280;13505;45.196;5.696;2023-10-08T10:33:18;100190.25;;;24.45;46.74
25650;BME280;13505;45.196;5.696;2023-10-08T10:38:09;100187.34;;;24.58;45.87
25650;BME280;13505;45.196;5.696;2023-10-08T10:43:01;100194.19;;;24.72;43.94
25650;BME280;13505;45.196;5.696;2023-10-08T10:47:53;100171.69;;;24.11;45.07
25650;BME280;13505;45.196;5.696;2023-10-08T10:52:51;100176.84;;;24.65;43.86
25650;BME280;13505;45.196;5.696;2023-10-08T10:57:42;100166.66;;;24.69;44.02
25650;BME280;13505;45.196;5.696;2023-10-08T11:02:33;100168.31;;;25.40;43.03
25650;BME280;13505;45.196;5.696;2023-10-08T11:07:29;100164.59;;;25.41;43.85
25650;BME280;13505;45.196;5.696;2023-10-08T11:12:20;100164.44;;;25.82;41.81
25650;BME280;13505;45.196;5.696;2023-10-08T11:17:17;100157.22;;;25.04;42.77
25650;BME280;13505;45.196;5.696;2023-10-08T11:22:08;100149.81;;;25.26;42.90
25650;BME280;13505;45.196;5.696;2023-10-08T11:27:06;100141.81;;;24.75;43.43
25650;BME280;13505;45.196;5.696;2023-10-08T11:32:05;100133.06;;;24.42;44.57
25650;BME280;13505;45.196;5.696;2023-10-08T11:36:57;100120.38;;;24.73;46.44
25650;BME280;13505;45.196;5.696;2023-10-08T11:41:58;100117.56;;;24.75;45.13
25650;BME280;13505;45.196;5.696;2023-10-08T11:46:53;100112.13;;;24.55;44.25
25650;BME280;13505;45.196;5.696;2023-10-08T11:51:44;100101.13;;;25.17;43.15
25650;BME280;13505;45.196;5.696;2023-10-08T11:56:36;100097.00;;;25.03;42.80
25650;BME280;13505;45.196;5.696;2023-10-08T12:01:28;100097.97;;;25.12;42.72
25650;BME280;13505;45.196;5.696;2023-10-08T12:06:19;100080.34;;;25.28;44.80
25650;BME280;13505;45.196;5.696;2023-10-08T12:11:09;100067.03;;;25.06;43.04
25650;BME280;13505;45.196;5.696;2023-10-08T12:16:01;100056.63;;;25.21;45.35
25650;BME280;13505;45.196;5.696;2023-10-08T12:21:02;100051.63;;;25.56;42.71
25650;BME280;13505;45.196;5.696;2023-10-08T12:25:54;100046.50;;;25.43;42.03
25650;BME280;13505;45.196;5.696;2023-10-08T12:30:45;100026.66;;;25.25;41.72
25650;BME280;13505;45.196;5.696;2023-10-08T12:35:36;100034.44;;;25.85;40.56
25650;BME280;13505;45.196;5.696;2023-10-08T12:40:27;100018.91;;;26.43;39.95
25650;BME280;13505;45.196;5.696;2023-10-08T12:45:32;100020.66;;;25.78;38.09
25650;BME280;13505;45.196;5.696;2023-10-08T12:50:22;100014.72;;;25.75;39.31
25650;BME280;13505;45.196;5.696;2023-10-08T12:55:32;100006.38;;;25.96;39.30
25650;BME280;13505;45.196;5.696;2023-10-08T13:00:29;99993.56;;;26.26;38.43
25650;BME280;13505;45.196;5.696;2023-10-08T13:05:21;99994.16;;;26.38;37.33
25650;BME280;13505;45.196;5.696;2023-10-08T13:10:17;99995.28;;;26.45;36.70
25650;BME280;13505;45.196;5.696;2023-10-08T13:15:08;99992.78;;;26.52;36.98
25650;BME280;13505;45.196;5.696;2023-10-08T13:19:59;99990.53;;;26.29;38.88
25650;BME280;13505;45.196;5.696;2023-10-08T13:24:49;99991.09;;;26.33;37.46
25650;BME280;13505;45.196;5.696;2023-10-08T13:29:40;99988.63;;;26.40;37.01
25650;BME280;13505;45.196;5.696;2023-10-08T13:34:30;99986.47;;;26.25;37.06
25650;BME280;13505;45.196;5.696;2023-10-08T13:39:21;99975.31;;;26.65;37.39
25650;BME280;13505;45.196;5.696;2023-10-08T13:44:12;99968.97;;;26.74;35.80
25650;BME280;13505;45.196;5.696;2023-10-08T13:49:02;99970.91;;;26.64;36.75
25650;BME280;13505;45.196;5.696;2023-10-08T13:53:56;99965.44;;;26.37;35.20
25650;BME280;13505;45.196;5.696;2023-10-08T13:58:50;99965.47;;;26.55;34.83
25650;BME280;13505;45.196;5.696;2023-10-08T14:03:41;99962.41;;;26.22;35.34
25650;BME280;13505;45.196;5.696;2023-10-08T14:08:32;99958.09;;;26.29;35.14
25650;BME280;13505;45.196;5.696;2023-10-08T14:13:22;99957.66;;;26.06;36.54
25650;BME280;13505;45.196;5.696;2023-10-08T14:18:14;99948.13;;;25.84;36.98
25650;BME280;13505;45.196;5.696;2023-10-08T14:23:07;99943.88;;;25.81;38.46
25650;BME280;13505;45.196;5.696;2023-10-08T14:27:57;99960.41;;;25.78;37.38
25650;BME280;13505;45.196;5.696;2023-10-08T14:32:54;99951.19;;;25.99;37.58
25650;BME280;13505;45.196;5.696;2023-10-08T14:37:47;99947.41;;;26.10;37.86
25650;BME280;13505;45.196;5.696;2023-10-08T14:42:56;99958.38;;;26.08;37.39
25650;BME280;13505;45.196;5.696;2023-10-08T14:47:46;99949.22;;;26.19;37.91
25650;BME280;13505;45.196;5.696;2023-10-08T14:52:38;99944.81;;;26.36;37.54
25650;BME280;13505;45.196;5.696;2023-10-08T14:57:28;99949.50;;;26.16;37.71
25650;BME280;13505;45.196;5.696;2023-10-08T15:02:19;99942.84;;;26.10;38.37
25650;BME280;13505;45.196;5.696;2023-10-08T15:07:09;99942.31;;;26.06;40.33
25650;BME280;13505;45.196;5.696;2023-10-08T15:12:01;99939.81;;;25.95;40.23
25650;BME280;13505;45.196;5.696;2023-10-08T15:16:52;99929.78;;;25.87;40.01
25650;BME280;13505;45.196;5.696;2023-10-08T15:21:42;99928.56;;;25.72;39.71
25650;BME280;13505;45.196;5.696;2023-10-08T15:26:33;99927.78;;;25.61;39.90
25650;BME280;13505;45.196;5.696;2023-10-08T15:31:24;99928.53;;;25.54;38.71
25650;BME280;13505;45.196;5.696;2023-10-08T15:36:14;99917.44;;;25.47;39.04
25650;BME280;13505;45.196;5.696;2023-10-08T15:41:05;99918.38;;;25.28;39.64
25650;BME280;13505;45.196;5.696;2023-10-08T15:45:55;99912.72;;;25.21;40.40
25650;BME280;13505;45.196;5.696;2023-10-08T15:50:45;99912.72;;;25.21;39.48
25650;BME280;13505;45.196;5.696;2023-10-08T15:55:37;99926.56;;;25.08;41.79
25650;BME280;13505;45.196;5.696;2023-10-08T16:00:27;99920.78;;;24.83;42.60
25650;BME280;13505;45.196;5.696;2023-10-08T16:05:18;99920.25;;;24.60;45.61
25650;BME280;13505;45.196;5.696;2023-10-08T16:10:09;99933.56;;;24.32;47.13
25650;BME280;13505;45.196;5.696;2023-10-08T16:15:00;99935.34;;;24.02;47.70
25650;BME280;13505;45.196;5.696;2023-10-08T16:19:50;99939.13;;;23.69;50.13
25650;BME280;13505;45.196;5.696;2023-10-08T16:24:41;99945.38;;;23.39;51.89
25650;BME280;13505;45.196;5.696;2023-10-08T16:29:32;99935.72;;;23.15;53.48
25650;BME280;13505;45.196;5.696;2023-10-08T16:34:22;99946.84;;;23.00;52.94
25650;BME280;13505;45.196;5.696;2023-10-08T16:39:13;99951.97;;;23.04;51.93
25650;BME280;13505;45.196;5.696;2023-10-08T16:44:14;99948.03;;;22.86;52.61
25650;BME280;13505;45.196;5.696;2023-10-08T16:49:05;99954.66;;;22.61;53.56
25650;BME280;13505;45.196;5.696;2023-10-08T16:53:56;99958.13;;;22.40;54.85
25650;BME280;13505;45.196;5.696;2023-10-08T16:58:46;99950.97;;;22.29;55.25
25650;BME280;13505;45.196;5.696;2023-10-08T17:03:37;99959.19;;;22.16;55.81
25650;BME280;13505;45.196;5.696;2023-10-08T17:08:27;99965.56;;;22.04;56.45
25650;BME280;13505;45.196;5.696;2023-10-08T17:13:18;99967.31;;;21.94;57.00
25650;BME280;13505;45.196;5.696;2023-10-08T17:18:08;99973.06;;;21.78;57.67
25650;BME280;13505;45.196;5.696;2023-10-08T17:23:01;99972.44;;;21.74;57.88
25650;BME280;13505;45.196;5.696;2023-10-08T17:27:51;99990.38;;;21.62;58.53
25650;BME280;13505;45.196;5.696;2023-10-08T17:32:41;99979.16;;;21.45;59.75
25650;BME280;13505;45.196;5.696;2023-10-08T17:37:34;99993.53;;;21.33;60.60
25650;BME280;13505;45.196;5.696;2023-10-08T17:42:27;99995.56;;;21.18;61.37
25650;BME280;13505;45.196;5.696;2023-10-08T17:47:19;99997.25;;;21.08;62.03
25650;BME280;13505;45.196;5.696;2023-10-08T17:52:10;100005.03;;;20.99;62.37
25650;BME280;13505;45.196;5.696;2023-10-08T17:57:02;100007.44;;;20.91;62.78
25650;BME280;13505;45.196;5.696;2023-10-08T18:01:54;100007.19;;;20.83;62.66
25650;BME280;13505;45.196;5.696;2023-10-08T18:06:45;100015.75;;;20.75;63.40
25650;BME280;13505;45.196;5.696;2023-10-08T18:11:36;100010.16;;;20.67;63.95
25650;BME280;13505;45.196;5.696;2023-10-08T18:16:32;100015.66;;;20.76;62.30
25650;BME280;13505;45.196;5.696;2023-10-08T18:21:22;100018.34;;;20.76;62.54
25650;BME280;13505;45.196;5.696;2023-10-08T18:26:13;100028.38;;;20.61;62.58
25650;BME280;13505;45.196;5.696;2023-10-08T18:31:04;100033.13;;;20.58;63.20
25650;BME280;13505;45.196;5.696;2023-10-08T18:36:02;100035.06;;;20.56;62.78
25650;BME280;13505;45.196;5.696;2023-10-08T18:40:53;100035.41;;;20.51;62.48
25650;BME280;13505;45.196;5.696;2023-10-08T18:45:44;100038.72;;;20.55;62.91
25650;BME280;13505;45.196;5.696;2023-10-08T18:50:35;100039.44;;;20.57;60.51
25650;BME280;13505;45.196;5.696;2023-10-08T18:55:26;100048.47;;;20.56;61.48
25650;BME280;13505;45.196;5.696;2023-10-08T19:00:20;100048.41;;;20.44;61.50
25650;BME280;13505;45.196;5.696;2023-10-08T19:05:11;100053.75;;;20.44;61.84
25650;BME280;13505;45.196;5.696;2023-10-08T19:10:05;100052.28;;;20.40;58.80
25650;BME280;13505;45.196;5.696;2023-10-08T19:15:15;100058.16;;;20.45;58.17
25650;BME280;13505;45.196;5.696;2023-10-08T19:20:21;100057.81;;;20.50;59.52
25650;BME280;13505;45.196;5.696;2023-10-08T19:25:32;100057.19;;;20.46;60.15
25650;BME280;13505;45.196;5.696;2023-10-08T19:30:43;100059.78;;;20.35;59.12
25650;BME280;13505;45.196;5.696;2023-10-08T19:35:34;100059.72;;;20.24;59.52
25650;BME280;13505;45.196;5.696;2023-10-08T19:40:25;100059.81;;;20.22;59.73
25650;BME280;13505;45.196;5.696;2023-10-08T19:45:16;100066.44;;;20.29;58.19
25650;BME280;13505;45.196;5.696;2023-10-08T19:50:08;100065.75;;;20.14;58.44
25650;BME280;13505;45.196;5.696;2023-10-08T19:55:00;100077.50;;;20.25;58.35
25650;BME280;13505;45.196;5.696;2023-10-08T19:59:51;100070.13;;;20.15;59.81
25650;BME280;13505;45.196;5.696;2023-10-08T20:04:41;100086.00;;;20.18;59.01
25650;BME280;13505;45.196;5.696;2023-10-08T20:09:32;100082.47;;;19.79;59.92
25650;BME280;13505;45.196;5.696;2023-10-08T20:14:22;100089.75;;;19.64;58.91
25650;BME280;13505;45.196;5.696;2023-10-08T20:19:13;100094.78;;;19.82;57.43
25650;BME280;13505;45.196;5.696;2023-10-08T20:24:04;100094.03;;;19.66;57.68
25650;BME280;13505;45.196;5.696;2023-10-08T20:29:14;100094.56;;;19.72;59.15
25650;BME280;13505;45.196;5.696;2023-10-08T20:34:05;100100.78;;;19.59;57.85
25650;BME280;13505;45.196;5.696;2023-10-08T20:38:56;100109.66;;;19.73;57.76
25650;BME280;13505;45.196;5.696;2023-10-08T20:43:48;100110.28;;;19.76;58.43
25650;BME280;13505;45.196;5.696;2023-10-08T20:48:38;100113.50;;;19.56;58.68
25650;BME280;13505;45.196;5.696;2023-10-08T20:53:30;100120.88;;;19.52;58.60
25650;BME280;13505;45.196;5.696;2023-10-08T20:58:21;100121.41;;;19.44;58.83
25650;BME280;13505;45.196;5.696;2023-10-08T21:03:15;100124.63;;;19.36;58.72
25650;BME280;13505;45.196;5.696;2023-10-08T21:08:08;100121.50;;;19.43;58.35
25650;BME280;13505;45.196;5.696;2023-10-08T21:12:58;100125.97;;;19.29;59.23
25650;BME280;13505;45.196;5.696;2023-10-08T21:17:49;100123.00;;;19.34;59.00
25650;BME280;13505;45.196;5.696;2023-10-08T21:22:41;100125.09;;;19.16;59.33
25650;BME280;13505;45.196;5.696;2023-10-08T21:27:36;100132.22;;;18.88;59.77
25650;BME280;13505;45.196;5.696;2023-10-08T21:32:27;100122.84;;;18.67;60.54
25650;BME280;13505;45.196;5.696;2023-10-08T21:37:17;100126.81;;;18.47;60.92
25650;BME280;13505;45.196;5.696;2023-10-08T21:42:08;100124.66;;;18.67;59.80
25650;BME280;13505;45.196;5.696;2023-10-08T21:46:58;100126.84;;;18.75;59.64
25650;BME280;13505;45.196;5.696;2023-10-08T21:51:49;100125.84;;;18.90;58.57
25650;BME280;13505;45.196;5.696;2023-10-08T21:56:41;100114.41;;;18.88;58.23
